createdAt,value
2017-07-19T00:00:47.367Z,0
2017-07-19T00:01:47.946Z,0
2017-07-19T00:02:48.522Z,0
2017-07-19T00:03:49.100Z,0
2017-07-19T00:04:49.676Z,0
2017-07-19T00:05:50.256Z,0
2017-07-19T00:06:50.834Z,0
2017-07-19T00:07:51.412Z,0
2017-07-19T00:08:51.991Z,0
2017-07-19T00:09:52.570Z,0
2017-07-19T00:10:53.147Z,0
2017-07-19T00:11:53.737Z,0
2017-07-19T00:12:54.314Z,0
2017-07-19T00:13:54.891Z,0
2017-07-19T00:14:55.470Z,0
2017-07-19T00:15:56.047Z,0
2017-07-19T00:16:56.627Z,0
2017-07-19T00:17:57.204Z,0
2017-07-19T00:18:57.783Z,0
2017-07-19T00:19:58.358Z,0
2017-07-19T00:20:58.936Z,0
2017-07-19T00:21:59.513Z,0
2017-07-19T00:23:00.091Z,0
2017-07-19T00:24:00.668Z,0
2017-07-19T00:25:01.244Z,0
2017-07-19T00:26:01.820Z,0
2017-07-19T00:27:02.397Z,0
2017-07-19T00:28:02.974Z,0
2017-07-19T00:29:03.551Z,0
2017-07-19T00:30:04.128Z,0
2017-07-19T00:31:04.703Z,0
2017-07-19T00:32:05.280Z,0
2017-07-19T00:33:05.858Z,0
2017-07-19T00:34:06.436Z,0
2017-07-19T00:35:07.013Z,0
2017-07-19T00:36:07.588Z,0
2017-07-19T00:37:08.166Z,0
2017-07-19T00:38:08.741Z,0
2017-07-19T00:39:09.325Z,0
2017-07-19T00:40:09.894Z,0
2017-07-19T00:41:10.471Z,0
2017-07-19T00:42:11.047Z,0
2017-07-19T00:43:11.625Z,0
2017-07-19T00:44:12.201Z,0
2017-07-19T00:45:12.778Z,0
2017-07-19T00:46:13.355Z,0
2017-07-19T00:47:13.932Z,0
2017-07-19T00:48:14.510Z,0
2017-07-19T00:49:15.089Z,0
2017-07-19T00:50:15.666Z,0
2017-07-19T00:51:16.246Z,0
2017-07-19T00:52:16.824Z,0
2017-07-19T00:53:17.400Z,0
2017-07-19T00:54:17.978Z,0
2017-07-19T00:55:18.554Z,0
2017-07-19T00:56:19.131Z,0
2017-07-19T00:57:19.708Z,0
2017-07-19T00:58:20.287Z,0
2017-07-19T00:59:20.864Z,0
2017-07-19T01:00:21.440Z,0
2017-07-19T01:01:22.017Z,0
2017-07-19T01:02:22.594Z,0
2017-07-19T01:03:23.171Z,0
2017-07-19T01:04:23.747Z,0
2017-07-19T01:05:24.324Z,0
2017-07-19T01:06:24.901Z,0
2017-07-19T01:07:25.478Z,0
2017-07-19T01:08:26.054Z,0
2017-07-19T01:09:26.632Z,0
2017-07-19T01:10:27.210Z,0
2017-07-19T01:11:27.788Z,0
2017-07-19T01:12:28.364Z,0
2017-07-19T01:13:28.944Z,0
2017-07-19T01:14:29.520Z,0
2017-07-19T01:15:30.102Z,0
2017-07-19T01:16:30.677Z,0
2017-07-19T01:17:31.255Z,0
2017-07-19T01:18:31.831Z,0
2017-07-19T01:19:32.407Z,0
2017-07-19T01:20:32.984Z,0
2017-07-19T01:21:33.559Z,0
2017-07-19T01:22:34.136Z,0
2017-07-19T01:23:34.714Z,0
2017-07-19T01:24:35.289Z,0
2017-07-19T01:25:35.865Z,0
2017-07-19T01:26:36.441Z,0
2017-07-19T01:27:37.018Z,0
2017-07-19T01:28:37.593Z,0
2017-07-19T01:29:38.170Z,0
2017-07-19T01:30:38.746Z,0
2017-07-19T01:31:39.323Z,0
2017-07-19T01:32:39.899Z,0
2017-07-19T01:33:40.476Z,0
2017-07-19T01:34:41.057Z,0
2017-07-19T01:35:41.628Z,0
2017-07-19T01:36:42.208Z,0
2017-07-19T01:37:42.781Z,0
2017-07-19T01:38:43.357Z,0
2017-07-19T01:39:43.933Z,0
2017-07-19T01:40:44.509Z,0
2017-07-19T01:41:45.085Z,0
2017-07-19T01:42:45.662Z,0
2017-07-19T01:43:46.239Z,0
2017-07-19T01:44:46.816Z,0
2017-07-19T01:45:47.393Z,0
2017-07-19T01:46:47.971Z,0
2017-07-19T01:47:48.549Z,0
2017-07-19T01:48:49.134Z,0
2017-07-19T01:49:49.712Z,0
2017-07-19T01:50:50.288Z,0
2017-07-19T01:51:50.865Z,0
2017-07-19T01:52:51.441Z,0
2017-07-19T01:53:52.017Z,0
2017-07-19T01:54:52.594Z,0
2017-07-19T01:55:53.182Z,0
2017-07-19T01:56:53.755Z,0
2017-07-19T01:57:54.334Z,0
2017-07-19T01:58:54.908Z,0
2017-07-19T01:59:55.487Z,0
2017-07-19T02:00:56.061Z,0
2017-07-19T02:01:56.639Z,0
2017-07-19T02:02:57.214Z,0
2017-07-19T02:03:57.791Z,0
2017-07-19T02:04:58.366Z,0
2017-07-19T02:05:58.943Z,0
2017-07-19T02:06:59.518Z,0
2017-07-19T02:08:00.094Z,0
2017-07-19T02:09:00.668Z,0
2017-07-19T02:10:01.255Z,0
2017-07-19T02:11:01.836Z,0
2017-07-19T02:12:02.425Z,0
2017-07-19T02:13:02.999Z,0
2017-07-19T02:14:03.575Z,0
2017-07-19T02:15:04.149Z,0
2017-07-19T02:16:04.726Z,0
2017-07-19T02:17:05.301Z,0
2017-07-19T02:18:05.878Z,0
2017-07-19T02:19:06.453Z,0
2017-07-19T02:20:07.029Z,0
2017-07-19T02:21:07.604Z,0
2017-07-19T02:22:08.179Z,0
2017-07-19T02:23:08.754Z,0
2017-07-19T02:24:09.330Z,0
2017-07-19T02:25:09.905Z,0
2017-07-19T02:26:10.480Z,0
2017-07-19T02:27:11.057Z,0
2017-07-19T02:28:11.632Z,0
2017-07-19T02:29:12.208Z,0
2017-07-19T02:30:12.784Z,0
2017-07-19T02:31:13.361Z,0
2017-07-19T02:32:13.937Z,0
2017-07-19T02:33:14.513Z,0
2017-07-19T02:34:15.089Z,0
2017-07-19T02:35:15.679Z,0
2017-07-19T02:36:16.258Z,0
2017-07-19T02:37:16.833Z,0
2017-07-19T02:38:17.411Z,0
2017-07-19T02:39:17.988Z,0
2017-07-19T02:40:18.563Z,0
2017-07-19T02:41:19.138Z,0
2017-07-19T02:42:19.715Z,0
2017-07-19T02:43:20.290Z,0
2017-07-19T02:44:20.877Z,0
2017-07-19T02:45:21.465Z,0
2017-07-19T02:46:22.032Z,0
2017-07-19T02:47:22.609Z,0
2017-07-19T02:48:23.184Z,0
2017-07-19T02:49:23.760Z,0
2017-07-19T02:50:24.347Z,0
2017-07-19T02:51:24.926Z,0
2017-07-19T02:52:25.505Z,0
2017-07-19T02:53:26.073Z,0
2017-07-19T02:54:26.660Z,0
2017-07-19T02:55:27.234Z,0
2017-07-19T02:56:27.812Z,0
2017-07-19T02:57:28.398Z,0
2017-07-19T02:58:28.973Z,0
2017-07-19T02:59:29.549Z,0
2017-07-19T03:00:30.124Z,0
2017-07-19T03:01:30.699Z,0
2017-07-19T03:02:31.274Z,0
2017-07-19T03:03:31.850Z,0
2017-07-19T03:04:32.424Z,0
2017-07-19T03:05:33.000Z,0
2017-07-19T03:06:33.574Z,0
2017-07-19T03:07:34.150Z,0
2017-07-19T03:08:34.723Z,4
2017-07-19T03:09:35.300Z,0
2017-07-19T03:10:35.875Z,0
2017-07-19T03:11:36.451Z,0
2017-07-19T03:12:37.027Z,4
2017-07-19T03:13:37.601Z,0
2017-07-19T03:14:38.176Z,4
2017-07-19T03:15:38.764Z,0
2017-07-19T03:16:39.341Z,4
2017-07-19T03:17:39.920Z,0
2017-07-19T03:18:40.496Z,4
2017-07-19T03:19:41.070Z,4
2017-07-19T03:20:41.662Z,4
2017-07-19T03:21:42.235Z,8
2017-07-19T03:22:42.811Z,4
2017-07-19T03:23:43.396Z,4
2017-07-19T03:24:43.976Z,4
2017-07-19T03:25:44.550Z,4
2017-07-19T03:26:45.127Z,8
2017-07-19T03:27:45.702Z,8
2017-07-19T03:28:46.276Z,8
2017-07-19T03:29:46.864Z,12
2017-07-19T03:30:47.541Z,8
2017-07-19T03:31:48.130Z,12
2017-07-19T03:32:48.707Z,12
2017-07-19T03:33:49.283Z,12
2017-07-19T03:34:49.859Z,12
2017-07-19T03:35:50.435Z,16
2017-07-19T03:36:51.013Z,20
2017-07-19T03:37:51.589Z,16
2017-07-19T03:38:52.166Z,20
2017-07-19T03:39:52.744Z,20
2017-07-19T03:40:53.321Z,24
2017-07-19T03:41:53.901Z,24
2017-07-19T03:42:54.490Z,28
2017-07-19T03:43:55.067Z,28
2017-07-19T03:44:55.646Z,32
2017-07-19T03:45:56.223Z,32
2017-07-19T03:46:56.800Z,32
2017-07-19T03:47:57.377Z,36
2017-07-19T03:48:57.954Z,36
2017-07-19T03:49:58.531Z,44
2017-07-19T03:50:59.108Z,40
2017-07-19T03:51:59.698Z,44
2017-07-19T03:53:00.286Z,48
2017-07-19T03:54:00.863Z,52
2017-07-19T03:55:01.441Z,56
2017-07-19T03:56:02.019Z,56
2017-07-19T03:57:02.596Z,60
2017-07-19T03:58:03.174Z,68
2017-07-19T03:59:03.759Z,68
2017-07-19T04:00:04.337Z,72
2017-07-19T04:01:04.915Z,76
2017-07-19T04:02:05.493Z,80
2017-07-19T04:03:06.081Z,84
2017-07-19T04:04:06.659Z,88
2017-07-19T04:05:07.238Z,88
2017-07-19T04:06:07.814Z,96
2017-07-19T04:07:08.392Z,96
2017-07-19T04:08:08.969Z,100
2017-07-19T04:09:09.549Z,104
2017-07-19T04:10:10.126Z,104
2017-07-19T04:11:10.704Z,112
2017-07-19T04:12:11.280Z,116
2017-07-19T04:13:11.857Z,116
2017-07-19T04:14:12.436Z,124
2017-07-19T04:15:13.014Z,124
2017-07-19T04:16:13.594Z,128
2017-07-19T04:17:14.187Z,132
2017-07-19T04:18:14.764Z,136
2017-07-19T04:19:15.352Z,140
2017-07-19T04:20:15.943Z,140
2017-07-19T04:21:16.520Z,144
2017-07-19T04:22:17.099Z,148
2017-07-19T04:23:17.676Z,148
2017-07-19T04:24:18.256Z,148
2017-07-19T04:25:18.845Z,152
2017-07-19T04:26:19.422Z,156
2017-07-19T04:27:19.998Z,160
2017-07-19T04:28:20.577Z,160
2017-07-19T04:29:21.155Z,164
2017-07-19T04:30:21.742Z,168
2017-07-19T04:31:22.319Z,168
2017-07-19T04:32:22.894Z,172
2017-07-19T04:33:23.473Z,180
2017-07-19T04:34:24.054Z,180
2017-07-19T04:35:24.642Z,188
2017-07-19T04:36:25.218Z,192
2017-07-19T04:37:25.797Z,196
2017-07-19T04:38:26.376Z,196
2017-07-19T04:39:26.954Z,200
2017-07-19T04:40:27.534Z,208
2017-07-19T04:41:28.124Z,212
2017-07-19T04:42:28.706Z,220
2017-07-19T04:43:29.296Z,220
2017-07-19T04:44:29.878Z,232
2017-07-19T04:45:30.456Z,236
2017-07-19T04:46:31.034Z,240
2017-07-19T04:47:31.614Z,248
2017-07-19T04:48:32.192Z,252
2017-07-19T04:49:32.772Z,256
2017-07-19T04:50:33.352Z,264
2017-07-19T04:51:33.934Z,268
2017-07-19T04:52:34.514Z,272
2017-07-19T04:53:35.093Z,276
2017-07-19T04:54:35.680Z,276
2017-07-19T04:55:36.253Z,284
2017-07-19T04:56:36.834Z,288
2017-07-19T04:57:37.414Z,292
2017-07-19T04:58:37.993Z,296
2017-07-19T04:59:38.574Z,300
2017-07-19T05:00:39.154Z,304
2017-07-19T05:01:39.736Z,304
2017-07-19T05:02:40.316Z,312
2017-07-19T05:03:40.908Z,316
2017-07-19T05:04:41.488Z,320
2017-07-19T05:05:42.067Z,320
2017-07-19T05:06:42.648Z,320
2017-07-19T05:07:43.229Z,324
2017-07-19T05:08:43.821Z,324
2017-07-19T05:09:44.398Z,328
2017-07-19T05:10:44.982Z,332
2017-07-19T05:11:45.560Z,328
2017-07-19T05:12:46.139Z,320
2017-07-19T05:13:46.719Z,324
2017-07-19T05:14:47.299Z,328
2017-07-19T05:15:47.880Z,328
2017-07-19T05:16:48.460Z,332
2017-07-19T05:17:49.040Z,336
2017-07-19T05:18:49.618Z,332
2017-07-19T05:19:50.198Z,336
2017-07-19T05:20:50.779Z,336
2017-07-19T05:21:51.358Z,344
2017-07-19T05:22:51.939Z,352
2017-07-19T05:23:52.519Z,352
2017-07-19T05:24:53.099Z,356
2017-07-19T05:25:53.679Z,372
2017-07-19T05:26:54.259Z,380
2017-07-19T05:27:54.840Z,380
2017-07-19T05:28:55.420Z,380
2017-07-19T05:29:55.999Z,384
2017-07-19T05:30:56.580Z,376
2017-07-19T05:31:57.160Z,380
2017-07-19T05:32:57.745Z,376
2017-07-19T05:33:58.335Z,372
2017-07-19T05:34:58.913Z,332
2017-07-19T05:35:59.494Z,368
2017-07-19T05:37:00.072Z,380
2017-07-19T05:38:00.663Z,392
2017-07-19T05:39:01.244Z,396
2017-07-19T05:40:01.826Z,400
2017-07-19T05:41:02.403Z,400
2017-07-19T05:42:02.994Z,404
2017-07-19T05:43:03.574Z,416
2017-07-19T05:44:04.154Z,404
2017-07-19T05:45:04.733Z,400
2017-07-19T05:46:05.312Z,388
2017-07-19T05:47:05.894Z,364
2017-07-19T05:48:06.475Z,392
2017-07-19T05:49:07.055Z,408
2017-07-19T05:50:07.646Z,412
2017-07-19T05:51:08.226Z,416
2017-07-19T05:52:08.807Z,428
2017-07-19T05:53:09.391Z,440
2017-07-19T05:54:09.978Z,452
2017-07-19T05:55:10.560Z,464
2017-07-19T05:56:11.138Z,472
2017-07-19T05:57:11.719Z,480
2017-07-19T05:58:12.300Z,480
2017-07-19T05:59:12.880Z,484
2017-07-19T06:00:13.462Z,484
2017-07-19T06:01:14.041Z,496
2017-07-19T06:02:14.622Z,484
2017-07-19T06:03:15.202Z,492
2017-07-19T06:04:15.782Z,488
2017-07-19T06:05:16.364Z,496
2017-07-19T06:06:16.945Z,496
2017-07-19T06:07:17.525Z,500
2017-07-19T06:08:18.119Z,488
2017-07-19T06:09:18.700Z,492
2017-07-19T06:10:19.294Z,512
2017-07-19T06:11:19.874Z,516
2017-07-19T06:12:20.454Z,508
2017-07-19T06:13:21.035Z,484
2017-07-19T06:14:21.617Z,500
2017-07-19T06:15:22.199Z,500
2017-07-19T06:16:22.781Z,524
2017-07-19T06:17:23.374Z,524
2017-07-19T06:18:23.954Z,520
2017-07-19T06:19:24.539Z,512
2017-07-19T06:20:25.116Z,476
2017-07-19T06:21:25.696Z,508
2017-07-19T06:22:26.281Z,528
2017-07-19T06:23:26.859Z,524
2017-07-19T06:24:27.442Z,528
2017-07-19T06:25:28.022Z,544
2017-07-19T06:26:28.602Z,552
2017-07-19T06:27:29.186Z,560
2017-07-19T06:28:29.766Z,568
2017-07-19T06:29:30.349Z,576
2017-07-19T06:30:30.929Z,580
2017-07-19T06:31:31.508Z,584
2017-07-19T06:32:32.089Z,588
2017-07-19T06:33:32.671Z,584
2017-07-19T06:34:33.252Z,596
2017-07-19T06:35:33.833Z,596
2017-07-19T06:36:34.414Z,600
2017-07-19T06:37:34.995Z,608
2017-07-19T06:38:35.577Z,608
2017-07-19T06:39:36.160Z,616
2017-07-19T06:40:36.739Z,624
2017-07-19T06:41:37.321Z,628
2017-07-19T06:42:37.901Z,628
2017-07-19T06:43:38.479Z,628
2017-07-19T06:44:39.061Z,640
2017-07-19T06:45:39.641Z,644
2017-07-19T06:46:40.222Z,656
2017-07-19T06:47:40.804Z,664
2017-07-19T06:48:41.384Z,672
2017-07-19T06:49:41.965Z,676
2017-07-19T06:50:42.546Z,684
2017-07-19T06:51:43.127Z,688
2017-07-19T06:52:43.707Z,696
2017-07-19T06:53:44.289Z,704
2017-07-19T06:54:44.870Z,712
2017-07-19T06:55:45.452Z,712
2017-07-19T06:56:46.033Z,716
2017-07-19T06:57:46.613Z,720
2017-07-19T06:58:47.196Z,724
2017-07-19T06:59:47.777Z,728
2017-07-19T07:00:48.359Z,728
2017-07-19T07:01:48.939Z,724
2017-07-19T07:02:49.520Z,720
2017-07-19T07:03:50.100Z,724
2017-07-19T07:04:50.681Z,720
2017-07-19T07:05:51.264Z,712
2017-07-19T07:06:51.856Z,720
2017-07-19T07:07:52.438Z,712
2017-07-19T07:08:53.020Z,720
2017-07-19T07:09:53.600Z,728
2017-07-19T07:10:54.182Z,736
2017-07-19T07:11:54.762Z,736
2017-07-19T07:12:55.342Z,732
2017-07-19T07:13:55.938Z,740
2017-07-19T07:14:56.517Z,744
2017-07-19T07:15:57.097Z,748
2017-07-19T07:16:57.679Z,752
2017-07-19T07:17:58.271Z,752
2017-07-19T07:18:58.865Z,768
2017-07-19T07:19:59.447Z,764
2017-07-19T07:21:00.039Z,772
2017-07-19T07:22:00.621Z,772
2017-07-19T07:23:01.202Z,772
2017-07-19T07:24:01.784Z,772
2017-07-19T07:25:02.364Z,792
2017-07-19T07:26:02.947Z,796
2017-07-19T07:27:03.541Z,788
2017-07-19T07:28:04.123Z,800
2017-07-19T07:29:04.707Z,808
2017-07-19T07:30:05.291Z,808
2017-07-19T07:31:05.873Z,808
2017-07-19T07:32:06.453Z,796
2017-07-19T07:33:07.035Z,804
2017-07-19T07:34:07.620Z,816
2017-07-19T07:35:08.202Z,816
2017-07-19T07:36:08.785Z,824
2017-07-19T07:37:09.367Z,812
2017-07-19T07:38:09.950Z,828
2017-07-19T07:39:10.532Z,836
2017-07-19T07:40:11.117Z,828
2017-07-19T07:41:11.698Z,808
2017-07-19T07:42:12.280Z,820
2017-07-19T07:43:12.862Z,820
2017-07-19T07:44:13.443Z,812
2017-07-19T07:45:14.025Z,784
2017-07-19T07:46:14.610Z,796
2017-07-19T07:47:15.192Z,792
2017-07-19T07:48:15.775Z,804
2017-07-19T07:49:16.357Z,788
2017-07-19T07:50:16.937Z,800
2017-07-19T07:51:17.522Z,780
2017-07-19T07:52:18.103Z,776
2017-07-19T07:53:18.689Z,768
2017-07-19T07:54:19.269Z,784
2017-07-19T07:55:19.851Z,788
2017-07-19T07:56:20.435Z,768
2017-07-19T07:57:21.022Z,764
2017-07-19T07:58:21.602Z,788
2017-07-19T07:59:22.185Z,808
2017-07-19T08:00:22.769Z,816
2017-07-19T08:01:23.349Z,816
2017-07-19T08:02:23.933Z,804
2017-07-19T08:03:24.516Z,820
2017-07-19T08:04:25.098Z,832
2017-07-19T08:05:25.681Z,844
2017-07-19T08:06:26.265Z,836
2017-07-19T08:07:26.844Z,868
2017-07-19T08:08:27.427Z,864
2017-07-19T08:09:28.010Z,872
2017-07-19T08:10:28.594Z,884
2017-07-19T08:11:29.176Z,896
2017-07-19T08:12:29.759Z,896
2017-07-19T08:13:30.352Z,900
2017-07-19T08:14:30.933Z,900
2017-07-19T08:15:31.516Z,912
2017-07-19T08:16:32.100Z,912
2017-07-19T08:17:32.682Z,916
2017-07-19T08:18:33.268Z,912
2017-07-19T08:19:33.852Z,932
2017-07-19T08:20:34.432Z,944
2017-07-19T08:21:35.014Z,952
2017-07-19T08:22:35.595Z,960
2017-07-19T08:23:36.179Z,952
2017-07-19T08:24:36.763Z,968
2017-07-19T08:25:37.346Z,972
2017-07-19T08:26:37.928Z,952
2017-07-19T08:27:38.510Z,956
2017-07-19T08:28:39.092Z,976
2017-07-19T08:29:39.676Z,972
2017-07-19T08:30:40.269Z,964
2017-07-19T08:31:40.860Z,980
2017-07-19T08:32:41.437Z,1008
2017-07-19T08:33:42.021Z,988
2017-07-19T08:34:42.616Z,988
2017-07-19T08:35:43.199Z,952
2017-07-19T08:36:43.783Z,948
2017-07-19T08:37:44.366Z,916
2017-07-19T08:38:44.948Z,892
2017-07-19T08:39:45.531Z,888
2017-07-19T08:40:46.113Z,928
2017-07-19T08:41:46.699Z,928
2017-07-19T08:42:47.282Z,936
2017-07-19T08:43:47.881Z,924
2017-07-19T08:44:48.449Z,900
2017-07-19T08:45:49.033Z,868
2017-07-19T08:46:49.616Z,844
2017-07-19T08:47:50.200Z,820
2017-07-19T08:48:50.795Z,792
2017-07-19T08:49:51.379Z,816
2017-07-19T08:50:51.964Z,800
2017-07-19T08:51:52.548Z,760
2017-07-19T08:52:53.133Z,700
2017-07-19T08:53:53.716Z,680
2017-07-19T08:54:54.300Z,692
2017-07-19T08:55:54.886Z,720
2017-07-19T08:56:55.479Z,728
2017-07-19T08:57:56.064Z,748
2017-07-19T08:58:56.649Z,788
2017-07-19T08:59:57.232Z,796
2017-07-19T09:00:57.818Z,772
2017-07-19T09:01:58.399Z,812
2017-07-19T09:02:58.998Z,796
2017-07-19T09:03:59.566Z,812
2017-07-19T09:05:00.156Z,824
2017-07-19T09:06:00.735Z,864
2017-07-19T09:07:01.319Z,732
2017-07-19T09:08:01.900Z,724
2017-07-19T09:09:02.483Z,740
2017-07-19T09:10:03.081Z,736
2017-07-19T09:11:03.673Z,744
2017-07-19T09:12:04.256Z,752
2017-07-19T09:13:04.844Z,772
2017-07-19T09:14:05.424Z,708
2017-07-19T09:15:06.017Z,684
2017-07-19T09:16:06.600Z,684
2017-07-19T09:17:07.182Z,708
2017-07-19T09:18:07.766Z,648
2017-07-19T09:19:08.355Z,676
2017-07-19T09:20:08.934Z,660
2017-07-19T09:21:09.520Z,624
2017-07-19T09:22:10.103Z,648
2017-07-19T09:23:10.687Z,620
2017-07-19T09:24:11.271Z,644
2017-07-19T09:25:11.855Z,660
2017-07-19T09:26:12.450Z,716
2017-07-19T09:27:13.035Z,808
2017-07-19T09:28:13.623Z,808
2017-07-19T09:29:14.216Z,844
2017-07-19T09:30:14.815Z,828
2017-07-19T09:31:15.399Z,788
2017-07-19T09:32:15.982Z,856
2017-07-19T09:33:16.566Z,812
2017-07-19T09:34:17.149Z,824
2017-07-19T09:35:17.731Z,880
2017-07-19T09:36:18.320Z,872
2017-07-19T09:37:18.898Z,888
2017-07-19T09:38:19.484Z,880
2017-07-19T09:39:20.066Z,888
2017-07-19T09:40:20.651Z,900
2017-07-19T09:41:21.243Z,916
2017-07-19T09:42:21.821Z,912
2017-07-19T09:43:22.406Z,920
2017-07-19T09:44:22.989Z,920
2017-07-19T09:45:23.593Z,880
2017-07-19T09:46:24.181Z,872
2017-07-19T09:47:24.775Z,868
2017-07-19T09:48:25.360Z,896
2017-07-19T09:49:25.944Z,908
2017-07-19T09:50:26.529Z,892
2017-07-19T09:51:27.112Z,892
2017-07-19T09:52:27.695Z,904
2017-07-19T09:53:28.280Z,908
2017-07-19T09:54:28.863Z,900
2017-07-19T09:55:29.447Z,904
2017-07-19T09:56:30.031Z,924
2017-07-19T09:57:30.618Z,928
2017-07-19T09:58:31.201Z,932
2017-07-19T09:59:31.784Z,932
2017-07-19T10:00:32.376Z,936
2017-07-19T10:01:32.953Z,936
2017-07-19T10:02:33.539Z,936
2017-07-19T10:03:34.124Z,940
2017-07-19T10:04:34.720Z,940
2017-07-19T10:05:35.305Z,940
2017-07-19T10:06:35.889Z,940
2017-07-19T10:07:36.474Z,940
2017-07-19T10:08:37.059Z,940
2017-07-19T10:09:37.643Z,940
2017-07-19T10:10:38.229Z,948
2017-07-19T10:11:38.813Z,948
2017-07-19T10:12:39.396Z,952
2017-07-19T10:13:39.979Z,956
2017-07-19T10:14:40.590Z,952
2017-07-19T10:15:41.148Z,956
2017-07-19T10:16:41.734Z,956
2017-07-19T10:17:42.332Z,956
2017-07-19T10:18:42.918Z,956
2017-07-19T10:19:43.501Z,960
2017-07-19T10:20:44.086Z,960
2017-07-19T10:21:44.682Z,960
2017-07-19T10:22:45.267Z,960
2017-07-19T10:23:45.852Z,964
2017-07-19T10:24:46.436Z,964
2017-07-19T10:25:47.032Z,964
2017-07-19T10:26:47.617Z,964
2017-07-19T10:27:48.201Z,972
2017-07-19T10:28:48.784Z,972
2017-07-19T10:29:49.372Z,972
2017-07-19T10:30:49.967Z,972
2017-07-19T10:31:50.543Z,968
2017-07-19T10:32:51.127Z,976
2017-07-19T10:33:51.722Z,976
2017-07-19T10:34:52.308Z,980
2017-07-19T10:35:52.892Z,984
2017-07-19T10:36:53.476Z,988
2017-07-19T10:37:54.063Z,980
2017-07-19T10:38:54.651Z,980
2017-07-19T10:39:55.236Z,984
2017-07-19T10:40:55.822Z,988
2017-07-19T10:41:56.407Z,988
2017-07-19T10:42:56.992Z,996
2017-07-19T10:43:57.574Z,996
2017-07-19T10:44:58.161Z,1000
2017-07-19T10:45:58.746Z,1008
2017-07-19T10:46:59.332Z,1012
2017-07-19T10:47:59.931Z,1020
2017-07-19T10:49:00.529Z,1024
2017-07-19T10:50:01.115Z,1032
2017-07-19T10:51:01.700Z,1032
2017-07-19T10:52:02.284Z,1036
2017-07-19T10:53:02.872Z,1048
2017-07-19T10:54:03.463Z,1048
2017-07-19T10:55:04.061Z,1052
2017-07-19T10:56:04.647Z,1056
2017-07-19T10:57:05.232Z,1068
2017-07-19T10:58:05.818Z,1076
2017-07-19T10:59:06.404Z,1076
2017-07-19T11:00:07.009Z,1084
2017-07-19T11:01:07.577Z,1088
2017-07-19T11:02:08.175Z,1088
2017-07-19T11:03:08.763Z,1104
2017-07-19T11:04:09.352Z,1104
2017-07-19T11:05:09.939Z,1116
2017-07-19T11:06:10.527Z,1124
2017-07-19T11:07:11.112Z,1128
2017-07-19T11:08:11.698Z,1116
2017-07-19T11:09:12.285Z,1136
2017-07-19T11:10:12.872Z,1124
2017-07-19T11:11:13.460Z,1120
2017-07-19T11:12:14.047Z,1096
2017-07-19T11:13:14.633Z,1096
2017-07-19T11:14:15.222Z,1100
2017-07-19T11:15:15.809Z,1104
2017-07-19T11:16:16.397Z,1124
2017-07-19T11:17:16.984Z,1116
2017-07-19T11:18:17.574Z,1108
2017-07-19T11:19:18.161Z,1104
2017-07-19T11:20:18.748Z,1120
2017-07-19T11:21:19.347Z,1124
2017-07-19T11:22:19.938Z,1144
2017-07-19T11:23:20.522Z,1164
2017-07-19T11:24:21.110Z,1172
2017-07-19T11:25:21.696Z,1196
2017-07-19T11:26:22.284Z,1216
2017-07-19T11:27:22.872Z,1232
2017-07-19T11:28:23.458Z,1268
2017-07-19T11:29:24.045Z,1252
2017-07-19T11:30:24.634Z,1256
2017-07-19T11:31:25.223Z,1240
2017-07-19T11:32:25.808Z,1180
2017-07-19T11:33:26.398Z,1080
2017-07-19T11:34:26.984Z,1072
2017-07-19T11:35:27.574Z,1072
2017-07-19T11:36:28.161Z,1096
2017-07-19T11:37:28.747Z,1128
2017-07-19T11:38:29.337Z,1156
2017-07-19T11:39:29.924Z,1100
2017-07-19T11:40:30.510Z,1136
2017-07-19T11:41:31.096Z,1164
2017-07-19T11:42:31.684Z,1180
2017-07-19T11:43:32.282Z,1164
2017-07-19T11:44:32.871Z,1144
2017-07-19T11:45:33.460Z,1148
2017-07-19T11:46:34.058Z,1140
2017-07-19T11:47:34.649Z,1132
2017-07-19T11:48:35.236Z,1192
2017-07-19T11:49:35.830Z,1252
2017-07-19T11:50:36.413Z,1220
2017-07-19T11:51:37.011Z,1232
2017-07-19T11:52:37.600Z,1244
2017-07-19T11:53:38.198Z,1200
2017-07-19T11:54:38.785Z,1224
2017-07-19T11:55:39.373Z,1220
2017-07-19T11:56:39.963Z,1232
2017-07-19T11:57:40.549Z,1224
2017-07-19T11:58:41.138Z,1280
2017-07-19T11:59:41.723Z,1308
2017-07-19T12:00:42.311Z,1308
2017-07-19T12:01:42.901Z,1296
2017-07-19T12:02:43.489Z,1272
2017-07-19T12:03:44.077Z,1308
2017-07-19T12:04:44.666Z,1332
2017-07-19T12:05:45.254Z,1344
2017-07-19T12:06:45.841Z,1320
2017-07-19T12:07:46.442Z,1304
2017-07-19T12:08:47.029Z,1308
2017-07-19T12:09:47.616Z,1308
2017-07-19T12:10:48.202Z,1264
2017-07-19T12:11:48.791Z,1236
2017-07-19T12:12:49.384Z,1248
2017-07-19T12:13:49.991Z,1264
2017-07-19T12:14:50.568Z,1272
2017-07-19T12:15:51.158Z,1256
2017-07-19T12:16:51.744Z,1236
2017-07-19T12:17:52.332Z,1232
2017-07-19T12:18:52.922Z,1296
2017-07-19T12:19:53.509Z,1348
2017-07-19T12:20:54.100Z,1296
2017-07-19T12:21:54.686Z,1284
2017-07-19T12:22:55.276Z,1324
2017-07-19T12:23:55.865Z,1312
2017-07-19T12:24:56.452Z,1376
2017-07-19T12:25:57.039Z,1404
2017-07-19T12:26:57.625Z,1452
2017-07-19T12:27:58.214Z,1424
2017-07-19T12:28:58.805Z,1344
2017-07-19T12:29:59.391Z,1376
2017-07-19T12:30:59.979Z,1384
2017-07-19T12:32:00.567Z,1380
2017-07-19T12:33:01.157Z,1420
2017-07-19T12:34:01.747Z,1424
2017-07-19T12:35:02.349Z,1432
2017-07-19T12:36:02.936Z,1400
2017-07-19T12:37:03.524Z,1392
2017-07-19T12:38:04.111Z,1408
2017-07-19T12:39:04.700Z,1252
2017-07-19T12:40:05.293Z,1180
2017-07-19T12:41:05.882Z,1180
2017-07-19T12:42:06.466Z,1176
2017-07-19T12:43:07.056Z,1168
2017-07-19T12:44:07.650Z,1180
2017-07-19T12:45:08.234Z,1260
2017-07-19T12:46:08.819Z,1284
2017-07-19T12:47:09.407Z,1240
2017-07-19T12:48:09.997Z,1172
2017-07-19T12:49:10.586Z,1160
2017-07-19T12:50:11.176Z,1076
2017-07-19T12:51:11.765Z,1068
2017-07-19T12:52:12.356Z,1040
2017-07-19T12:53:12.945Z,992
2017-07-19T12:54:13.533Z,1380
2017-07-19T12:55:14.122Z,1504
2017-07-19T12:56:14.712Z,1520
2017-07-19T12:57:15.301Z,1528
2017-07-19T12:58:15.890Z,1516
2017-07-19T12:59:16.490Z,1504
2017-07-19T13:00:17.078Z,1488
2017-07-19T13:01:17.666Z,1452
2017-07-19T13:02:18.256Z,1468
2017-07-19T13:03:18.844Z,1464
2017-07-19T13:04:19.435Z,1464
2017-07-19T13:05:20.023Z,1448
2017-07-19T13:06:20.612Z,1440
2017-07-19T13:07:21.202Z,1400
2017-07-19T13:08:21.789Z,1364
2017-07-19T13:09:22.382Z,1228
2017-07-19T13:10:22.981Z,1184
2017-07-19T13:11:23.581Z,1356
2017-07-19T13:12:24.168Z,1484
2017-07-19T13:13:24.756Z,1508
2017-07-19T13:14:25.343Z,1536
2017-07-19T13:15:25.932Z,1532
2017-07-19T13:16:26.522Z,1572
2017-07-19T13:17:27.110Z,1568
2017-07-19T13:18:27.697Z,1028
2017-07-19T13:19:28.286Z,1232
2017-07-19T13:20:28.877Z,1684
2017-07-19T13:21:29.464Z,1720
2017-07-19T13:22:30.051Z,1724
2017-07-19T13:23:30.638Z,1240
2017-07-19T13:24:31.227Z,1144
2017-07-19T13:25:31.815Z,1140
2017-07-19T13:26:32.404Z,1632
2017-07-19T13:27:32.992Z,1408
2017-07-19T13:28:33.581Z,1716
2017-07-19T13:29:34.170Z,1888
2017-07-19T13:30:34.758Z,1896
2017-07-19T13:31:35.349Z,1856
2017-07-19T13:32:35.936Z,1824
2017-07-19T13:33:36.529Z,1836
2017-07-19T13:34:37.116Z,1796
2017-07-19T13:35:37.703Z,1764
2017-07-19T13:36:38.291Z,1624
2017-07-19T13:37:38.880Z,1688
2017-07-19T13:38:39.466Z,1508
2017-07-19T13:39:40.057Z,1428
2017-07-19T13:40:40.643Z,1476
2017-07-19T13:41:41.234Z,1472
2017-07-19T13:42:41.836Z,1460
2017-07-19T13:43:42.425Z,1504
2017-07-19T13:44:43.013Z,1524
2017-07-19T13:45:43.604Z,1532
2017-07-19T13:46:44.206Z,1428
2017-07-19T13:47:44.793Z,1448
2017-07-19T13:48:45.385Z,1492
2017-07-19T13:49:45.972Z,1452
2017-07-19T13:50:46.561Z,1468
2017-07-19T13:51:47.152Z,1456
2017-07-19T13:52:47.752Z,1520
2017-07-19T13:53:48.340Z,1464
2017-07-19T13:54:48.929Z,1380
2017-07-19T13:55:49.517Z,1336
2017-07-19T13:56:50.104Z,1372
2017-07-19T13:57:50.691Z,1452
2017-07-19T13:58:51.284Z,1524
2017-07-19T13:59:51.870Z,1616
2017-07-19T14:00:52.459Z,1648
2017-07-19T14:01:53.047Z,1668
2017-07-19T14:02:53.634Z,1664